createdAt,value
2023-10-02T00:03:58.418Z,94609.56
2023-10-02T00:09:01.456Z,94610.13
2023-10-02T00:14:05.076Z,94608.66
2023-10-02T00:19:06.597Z,94599.78
2023-10-02T00:24:09.809Z,94606.03
2023-10-02T00:29:11.350Z,94615.50
2023-10-02T00:34:13.219Z,94602.41
2023-10-02T00:39:16.490Z,94602.84
2023-10-02T00:44:18.039Z,94609.94
2023-10-02T00:49:20.147Z,94604.44
2023-10-02T00:54:23.270Z,94589.75
2023-10-02T00:59:24.892Z,94585.94
2023-10-02T01:04:26.474Z,94590.38
2023-10-02T01:09:30.570Z,94585.56
2023-10-02T01:14:33.213Z,94583.59
2023-10-02T01:19:36.665Z,94577.22
2023-10-02T01:24:40.336Z,94586.38
2023-10-02T01:29:42.201Z,94578.00
2023-10-02T01:34:43.737Z,94578.63
2023-10-02T01:39:46.701Z,94577.88
2023-10-02T01:44:48.387Z,94573.06
2023-10-02T01:49:49.938Z,94573.97
2023-10-02T01:54:52.823Z,94566.34
2023-10-02T01:59:54.570Z,94568.38
2023-10-02T02:04:57.280Z,94567.84
2023-10-02T02:10:00.212Z,94564.22
2023-10-02T02:15:01.847Z,94566.88
2023-10-02T02:20:04.190Z,94570.16
2023-10-02T02:25:08.004Z,94562.50
2023-10-02T02:30:10.357Z,94560.91
2023-10-02T02:35:12.343Z,94558.88
2023-10-02T02:40:15.244Z,94562.94
2023-10-02T02:45:16.914Z,94561.34
2023-10-02T02:50:18.440Z,94559.72
2023-10-02T02:55:21.359Z,94560.34
2023-10-02T03:00:23.021Z,94558.53
2023-10-02T03:05:25.546Z,94551.69
2023-10-02T03:10:28.765Z,94554.91
2023-10-02T03:15:33.026Z,94549.06
2023-10-02T03:20:36.640Z,94548.06
2023-10-02T03:25:39.586Z,94543.75
2023-10-02T03:30:41.176Z,94542.03
2023-10-02T03:35:42.780Z,94535.00
2023-10-02T03:40:45.679Z,94545.16
2023-10-02T03:45:47.437Z,94542.78
2023-10-02T03:50:48.967Z,94541.00
2023-10-02T03:55:59.490Z,94523.47
2023-10-02T04:01:01.151Z,94538.75
2023-10-02T04:06:03.087Z,94529.28
2023-10-02T04:11:06.029Z,94526.47
2023-10-02T04:16:07.658Z,94529.47
2023-10-02T04:21:09.505Z,94527.25
2023-10-02T04:26:16.734Z,94524.06
2023-10-02T04:31:18.372Z,94529.88
2023-10-02T04:36:20.228Z,94539.59
2023-10-02T04:41:23.374Z,94530.38
2023-10-02T04:46:27.582Z,94534.09
2023-10-02T04:51:29.278Z,94539.38
2023-10-02T04:56:32.269Z,94543.00
2023-10-02T05:01:33.949Z,94536.22
2023-10-02T05:06:35.873Z,94537.66
2023-10-02T05:11:38.768Z,94548.75
2023-10-02T05:16:41.129Z,94547.94
2023-10-02T05:21:42.755Z,94549.75
2023-10-02T05:26:46.731Z,94554.34
2023-10-02T05:31:48.856Z,94562.22
2023-10-02T05:36:50.576Z,94557.59
2023-10-02T05:41:53.451Z,94565.03
2023-10-02T05:46:55.180Z,94567.25
2023-10-02T05:51:56.861Z,94566.56
2023-10-02T05:57:00.199Z,94576.38
2023-10-02T06:02:01.827Z,94581.22
2023-10-02T06:07:03.565Z,94579.53
2023-10-02T06:12:07.282Z,94583.47
2023-10-02T06:17:09.412Z,94584.66
2023-10-02T06:22:12.372Z,94585.81
2023-10-02T06:27:15.581Z,94590.03
2023-10-02T06:32:17.930Z,94591.09
2023-10-02T06:37:21.213Z,94594.81
2023-10-02T06:42:24.430Z,94594.34
2023-10-02T06:47:28.059Z,94587.94
2023-10-02T06:52:30.476Z,94592.06
2023-10-02T06:57:33.327Z,94595.09
2023-10-02T07:02:35.011Z,94603.56
2023-10-02T07:07:36.690Z,94608.31
2023-10-02T07:12:39.583Z,94606.28
2023-10-02T07:17:41.857Z,94600.13
2023-10-02T07:22:43.575Z,94601.34
2023-10-02T07:27:46.731Z,94596.19
2023-10-02T07:32:48.392Z,94588.91
2023-10-02T07:37:50.348Z,94587.34
2023-10-02T07:42:53.516Z,94591.84
2023-10-02T07:47:55.170Z,94591.16
2023-10-02T07:52:56.777Z,94594.44
2023-10-02T07:57:59.946Z,94591.69
2023-10-02T08:03:01.607Z,94599.69
2023-10-02T08:08:03.318Z,94592.06
2023-10-02T08:13:06.733Z,94595.41
2023-10-02T08:18:08.374Z,94598.84
2023-10-02T08:23:12.589Z,94591.09
2023-10-02T08:28:15.524Z,94598.19
2023-10-02T08:33:37.738Z,94599.03
2023-10-02T08:38:38.725Z,94599.53
2023-10-02T08:43:41.579Z,94601.63
2023-10-02T08:48:43.185Z,94587.19
2023-10-02T08:53:44.887Z,94592.38
2023-10-02T08:58:48.490Z,94593.72
2023-10-02T09:03:51.880Z,94589.31
2023-10-02T09:08:54.009Z,94590.03
2023-10-02T09:14:02.058Z,94598.69
2023-10-02T09:19:03.708Z,94590.63
2023-10-02T09:24:18.995Z,94586.16
2023-10-02T09:29:21.938Z,94585.50
2023-10-02T09:34:37.034Z,94591.22
2023-10-02T09:39:45.490Z,94573.66
2023-10-02T09:44:51.285Z,94566.03
2023-10-02T09:49:57.287Z,94561.31
2023-10-02T09:55:03.842Z,94567.22
2023-10-02T10:00:10.918Z,94561.25
2023-10-02T10:05:13.275Z,94547.75
2023-10-02T10:10:27.535Z,94542.47
2023-10-02T10:15:30.494Z,94548.59
2023-10-02T10:20:32.074Z,94541.75
2023-10-02T10:25:44.001Z,94540.97
2023-10-02T10:30:51.122Z,94534.13
2023-10-02T10:35:53.140Z,94535.19
2023-10-02T10:40:54.941Z,94533.91
2023-10-02T10:45:59.861Z,94523.06
2023-10-02T10:51:09.960Z,94520.88
2023-10-02T10:56:11.619Z,94520.88
2023-10-02T11:01:15.677Z,94524.63
2023-10-02T11:06:17.384Z,94521.97
2023-10-02T11:11:26.484Z,94513.50
2023-10-02T11:16:34.647Z,94519.34
2023-10-02T11:21:36.331Z,94509.75
2023-10-02T11:26:37.838Z,94502.88
2023-10-02T11:31:40.962Z,94498.63
2023-10-02T11:36:43.540Z,94503.16
2023-10-02T11:41:45.252Z,94498.41
2023-10-02T11:46:48.613Z,94497.09
2023-10-02T11:51:50.326Z,94481.72
2023-10-02T11:56:51.920Z,94481.72
2023-10-02T12:01:55.158Z,94480.63
2023-10-02T12:06:57.188Z,94480.13
2023-10-02T12:11:58.836Z,94470.84
2023-10-02T12:17:01.818Z,94466.34
2023-10-02T12:22:08.775Z,94460.50
2023-10-02T12:27:11.289Z,94456.25
2023-10-02T12:32:14.241Z,94446.69
2023-10-02T12:37:15.809Z,94442.97
2023-10-02T12:42:18.629Z,94438.72
2023-10-02T12:47:21.883Z,94441.09
2023-10-02T12:52:23.538Z,94432.84
2023-10-02T12:57:25.223Z,94426.50
2023-10-02T13:02:28.562Z,94425.44
2023-10-02T13:07:30.211Z,94418.53
2023-10-02T13:12:31.755Z,94415.38
2023-10-02T13:17:34.787Z,94412.19
2023-10-02T13:22:36.412Z,94397.84
2023-10-02T13:27:38.143Z,94398.63
2023-10-02T13:32:41.291Z,94399.41
2023-10-02T13:37:43.071Z,94389.09
2023-10-02T13:42:44.649Z,94386.16
2023-10-02T13:47:49.131Z,94383.47
2023-10-02T13:52:50.746Z,94381.59
2023-10-02T13:57:53.511Z,94378.13
2023-10-02T14:02:56.593Z,94369.38
2023-10-02T14:07:58.280Z,94369.38
2023-10-02T14:12:59.874Z,94369.09
2023-10-02T14:18:02.889Z,94365.41
2023-10-02T14:23:05.093Z,94356.63
2023-10-02T14:28:06.988Z,94362.97
2023-10-02T14:33:09.987Z,94362.22
2023-10-02T14:38:11.701Z,94355.03
2023-10-02T14:43:13.258Z,94351.88
2023-10-02T14:48:31.794Z,94352.13
2023-10-02T14:53:38.168Z,94352.59
2023-10-02T14:58:40.424Z,94353.19
2023-10-02T15:03:43.407Z,94353.19
2023-10-02T15:08:45.469Z,94347.34
2023-10-02T15:13:47.218Z,94347.63
2023-10-02T15:18:50.193Z,94349.53
2023-10-02T15:23:51.660Z,94346.09
2023-10-02T15:28:53.158Z,94350.06
2023-10-02T15:33:56.695Z,94349.28
2023-10-02T15:38:58.243Z,94344.25
2023-10-02T15:43:59.908Z,94342.66
2023-10-02T15:49:03.057Z,94337.88
2023-10-02T15:54:05.044Z,94335.22
2023-10-02T15:59:06.658Z,94339.47
2023-10-02T16:04:09.678Z,94335.59
2023-10-02T16:09:11.648Z,94327.66
2023-10-02T16:14:13.348Z,94327.34
2023-10-02T16:19:16.339Z,94319.94
2023-10-02T16:24:17.900Z,94314.13
2023-10-02T16:29:19.463Z,94319.94
2023-10-02T16:34:22.341Z,94319.91
2023-10-02T16:39:24.028Z,94319.59
2023-10-02T16:44:25.682Z,94315.31
2023-10-02T16:49:28.647Z,94319.22
2023-10-02T16:54:30.240Z,94316.50
2023-10-02T16:59:31.830Z,94326.22
2023-10-02T17:04:34.804Z,94332.81
2023-10-02T17:09:36.420Z,94331.94
2023-10-02T17:14:38.054Z,94329.00
2023-10-02T17:19:40.973Z,94333.72
2023-10-02T17:24:43.616Z,94335.81
2023-10-02T17:29:45.238Z,94334.72
2023-10-02T17:34:50.228Z,94344.94
2023-10-02T17:39:51.869Z,94345.81
2023-10-02T17:44:53.498Z,94347.81
2023-10-02T17:49:56.682Z,94348.50
2023-10-02T17:54:58.323Z,94349.22
2023-10-02T17:59:59.927Z,94344.13
2023-10-02T18:05:03.066Z,94337.25
2023-10-02T18:10:05.247Z,94326.88
2023-10-02T18:15:09.204Z,94328.88
2023-10-02T18:20:13.664Z,94328.72
2023-10-02T18:25:17.018Z,94334.00
2023-10-02T18:30:21.089Z,94326.88
2023-10-02T18:35:24.085Z,94322.41
2023-10-02T18:40:25.774Z,94318.97
2023-10-02T18:45:27.349Z,94314.94
2023-10-02T18:50:32.463Z,94310.09
2023-10-02T18:55:34.098Z,94322.41
2023-10-02T19:00:35.759Z,94309.19
2023-10-02T19:05:38.872Z,94313.34
2023-10-02T19:10:40.496Z,94312.94
2023-10-02T19:15:42.127Z,94315.56
2023-10-02T19:20:45.136Z,94306.78
2023-10-02T19:25:47.122Z,94310.38
2023-10-02T19:30:48.740Z,94308.72
2023-10-02T19:35:51.739Z,94294.38
2023-10-02T19:40:53.605Z,94286.91
2023-10-02T19:45:55.369Z,94301.13
2023-10-02T19:50:58.382Z,94296.34
2023-10-02T19:55:59.992Z,94296.56
2023-10-02T20:01:02.273Z,94291.53
2023-10-02T20:06:08.433Z,94288.06
2023-10-02T20:11:10.205Z,94288.47
2023-10-02T20:16:11.982Z,94286.53
2023-10-02T20:21:16.745Z,94293.34
2023-10-02T20:26:18.430Z,94286.41
2023-10-02T20:31:20.315Z,94280.28
2023-10-02T20:36:23.280Z,94279.06
2023-10-02T20:41:24.953Z,94273.25
2023-10-02T20:46:26.775Z,94274.50
2023-10-02T20:51:29.876Z,94265.44
2023-10-02T20:56:32.159Z,94262.72
2023-10-02T21:01:33.827Z,94258.59
2023-10-02T21:06:37.091Z,94260.41
2023-10-02T21:11:38.745Z,94261.28
2023-10-02T21:16:40.369Z,94263.91
2023-10-02T21:21:43.390Z,94266.53
2023-10-02T21:26:45.182Z,94257.44
2023-10-02T21:31:46.831Z,94259.44
2023-10-02T21:36:49.796Z,94256.78
2023-10-02T21:41:51.363Z,94257.19
2023-10-02T21:46:53.079Z,94252.84
2023-10-02T21:51:56.033Z,94254.91
2023-10-02T21:56:57.684Z,94253.78
2023-10-02T22:01:59.274Z,94253.56
2023-10-02T22:07:02.300Z,94244.34
2023-10-02T22:12:04.228Z,94250.66
2023-10-02T22:17:06.823Z,94241.44
2023-10-02T22:22:09.789Z,94236.72
2023-10-02T22:27:11.455Z,94245.09
2023-10-02T22:32:14.319Z,94230.34
2023-10-02T22:37:17.319Z,94231.38
2023-10-02T22:42:18.952Z,94226.13
2023-10-02T22:47:20.566Z,94212.88
2023-10-02T22:52:23.549Z,94213.34
2023-10-02T22:57:25.111Z,94210.47
2023-10-02T23:02:26.852Z,94206.50
2023-10-02T23:07:29.949Z,94205.69
2023-10-02T23:12:31.553Z,94206.31
2023-10-02T23:17:33.126Z,94200.41
2023-10-02T23:22:36.020Z,94192.91
2023-10-02T23:27:37.589Z,94189.38
2023-10-02T23:32:39.624Z,94195.56
2023-10-02T23:37:42.576Z,94199.94
2023-10-02T23:42:44.601Z,94182.94
2023-10-02T23:47:46.836Z,94180.53
2023-10-02T23:52:50.146Z,94181.59
2023-10-02T23:57:51.888Z,94168.94
